sensor_id;sensor_type;location;lat;lon;timestamp;P1;durP1;ratioP1;P2;durP2;ratioP2
74867;SDS011;63419;42.262;12.210;2023-04-24T00:01:16;15.65;;;5.25;;
74867;SDS011;63419;42.262;12.210;2023-04-24T00:03:43;14.02;;;5.75;;
74867;SDS011;63419;42.262;12.210;2023-04-24T00:06:10;10.30;;;5.00;;
74867;SDS011;63419;42.262;12.210;2023-04-24T00:08:37;13.23;;;5.30;;
74867;SDS011;63419;42.262;12.210;2023-04-24T00:11:04;10.48;;;4.85;;
74867;SDS011;63419;42.262;12.210;2023-04-24T00:13:31;11.35;;;5.40;;
74867;SDS011;63419;42.262;12.210;2023-04-24T00:15:58;10.73;;;5.18;;
74867;SDS011;63419;42.262;12.210;2023-04-24T00:18:25;16.90;;;5.53;;
74867;SDS011;63419;42.262;12.210;2023-04-24T00:20:52;16.02;;;4.90;;
74867;SDS011;63419;42.262;12.210;2023-04-24T00:23:19;10.00;;;4.75;;
74867;SDS011;63419;42.262;12.210;2023-04-24T00:25:46;10.32;;;4.95;;
74867;SDS011;63419;42.262;12.210;2023-04-24T00:28:13;12.68;;;5.15;;
74867;SDS011;63419;42.262;12.210;2023-04-24T00:30:40;14.82;;;5.30;;
74867;SDS011;63419;42.262;12.210;2023-04-24T00:33:07;13.52;;;5.13;;
74867;SDS011;63419;42.262;12.210;2023-04-24T00:35:34;10.95;;;5.10;;
74867;SDS011;63419;42.262;12.210;2023-04-24T00:38:01;12.48;;;4.65;;
74867;SDS011;63419;42.262;12.210;2023-04-24T00:40:28;10.43;;;5.55;;
74867;SDS011;63419;42.262;12.210;2023-04-24T00:42:56;13.40;;;5.55;;
74867;SDS011;63419;42.262;12.210;2023-04-24T00:45:23;12.77;;;5.43;;
74867;SDS011;63419;42.262;12.210;2023-04-24T00:47:50;15.02;;;6.70;;
74867;SDS011;63419;42.262;12.210;2023-04-24T00:50:20;14.77;;;6.53;;
74867;SDS011;63419;42.262;12.210;2023-04-24T00:52:48;15.60;;;6.80;;
74867;SDS011;63419;42.262;12.210;2023-04-24T00:55:15;15.45;;;5.72;;
74867;SDS011;63419;42.262;12.210;2023-04-24T00:57:42;14.82;;;5.55;;
74867;SDS011;63419;42.262;12.210;2023-04-24T01:00:11;12.18;;;5.50;;
74867;SDS011;63419;42.262;12.210;2023-04-24T01:02:39;11.00;;;4.60;;
74867;SDS011;63419;42.262;12.210;2023-04-24T01:05:11;11.77;;;4.20;;
74867;SDS011;63419;42.262;12.210;2023-04-24T01:07:39;11.18;;;3.92;;
74867;SDS011;63419;42.262;12.210;2023-04-24T01:10:10;12.25;;;4.97;;
74867;SDS011;63419;42.262;12.210;2023-04-24T01:12:39;13.43;;;5.75;;
74867;SDS011;63419;42.262;12.210;2023-04-24T01:15:06;10.10;;;5.43;;
74867;SDS011;63419;42.262;12.210;2023-04-24T01:17:33;11.73;;;5.32;;
74867;SDS011;63419;42.262;12.210;2023-04-24T01:22:33;16.27;;;5.30;;
74867;SDS011;63419;42.262;12.210;2023-04-24T01:25:00;12.85;;;5.53;;
74867;SDS011;63419;42.262;12.210;2023-04-24T01:27:28;12.13;;;5.13;;
74867;SDS011;63419;42.262;12.210;2023-04-24T01:29:55;11.90;;;4.32;;
74867;SDS011;63419;42.262;12.210;2023-04-24T01:32:23;19.50;;;9.85;;
74867;SDS011;63419;42.262;12.210;2023-04-24T01:34:51;16.73;;;6.68;;
74867;SDS011;63419;42.262;12.210;2023-04-24T01:37:18;13.00;;;6.85;;
74867;SDS011;63419;42.262;12.210;2023-04-24T01:39:45;13.13;;;4.78;;
74867;SDS011;63419;42.262;12.210;2023-04-24T01:42:12;13.60;;;6.65;;
74867;SDS011;63419;42.262;12.210;2023-04-24T01:44:39;8.27;;;4.68;;
74867;SDS011;63419;42.262;12.210;2023-04-24T01:47:07;11.43;;;5.45;;
74867;SDS011;63419;42.262;12.210;2023-04-24T01:49:34;12.77;;;6.65;;
74867;SDS011;63419;42.262;12.210;2023-04-24T01:52:01;11.18;;;5.57;;
74867;SDS011;63419;42.262;12.210;2023-04-24T01:54:28;12.70;;;5.55;;
74867;SDS011;63419;42.262;12.210;2023-04-24T01:56:55;13.85;;;5.47;;
74867;SDS011;63419;42.262;12.210;2023-04-24T01:59:22;10.15;;;5.50;;
74867;SDS011;63419;42.262;12.210;2023-04-24T02:01:51;15.73;;;5.80;;
74867;SDS011;63419;42.262;12.210;2023-04-24T02:04:18;14.00;;;5.20;;
74867;SDS011;63419;42.262;12.210;2023-04-24T02:06:45;12.77;;;5.13;;
74867;SDS011;63419;42.262;12.210;2023-04-24T02:09:12;11.48;;;5.30;;
74867;SDS011;63419;42.262;12.210;2023-04-24T02:11:39;14.95;;;5.35;;
74867;SDS011;63419;42.262;12.210;2023-04-24T02:14:06;9.68;;;4.05;;
74867;SDS011;63419;42.262;12.210;2023-04-24T02:16:33;15.63;;;5.85;;
74867;SDS011;63419;42.262;12.210;2023-04-24T02:19:02;14.63;;;4.75;;
74867;SDS011;63419;42.262;12.210;2023-04-24T02:21:29;11.65;;;4.43;;
74867;SDS011;63419;42.262;12.210;2023-04-24T02:26:24;13.10;;;5.40;;
74867;SDS011;63419;42.262;12.210;2023-04-24T02:28:51;16.30;;;4.63;;
74867;SDS011;63419;42.262;12.210;2023-04-24T02:31:18;19.05;;;5.72;;
74867;SDS011;63419;42.262;12.210;2023-04-24T02:33:45;18.45;;;6.80;;
74867;SDS011;63419;42.262;12.210;2023-04-24T02:36:12;15.38;;;6.30;;
74867;SDS011;63419;42.262;12.210;2023-04-24T02:41:06;17.52;;;5.78;;
74867;SDS011;63419;42.262;12.210;2023-04-24T02:43:33;15.18;;;6.18;;
74867;SDS011;63419;42.262;12.210;2023-04-24T02:46:00;10.50;;;5.20;;
74867;SDS011;63419;42.262;12.210;2023-04-24T02:48:27;12.90;;;5.57;;
74867;SDS011;63419;42.262;12.210;2023-04-24T02:50:54;14.38;;;5.65;;
74867;SDS011;63419;42.262;12.210;2023-04-24T02:53:21;14.85;;;6.00;;
74867;SDS011;63419;42.262;12.210;2023-04-24T02:55:49;15.82;;;5.97;;
74867;SDS011;63419;42.262;12.210;2023-04-24T02:58:16;12.48;;;5.07;;
74867;SDS011;63419;42.262;12.210;2023-04-24T03:00:43;20.25;;;7.50;;
74867;SDS011;63419;42.262;12.210;2023-04-24T03:03:10;16.50;;;6.55;;
74867;SDS011;63419;42.262;12.210;2023-04-24T03:05:38;13.63;;;6.30;;
74867;SDS011;63419;42.262;12.210;2023-04-24T03:08:05;14.45;;;6.00;;
74867;SDS011;63419;42.262;12.210;2023-04-24T03:10:32;12.80;;;5.60;;
74867;SDS011;63419;42.262;12.210;2023-04-24T03:12:59;16.90;;;5.60;;
74867;SDS011;63419;42.262;12.210;2023-04-24T03:15:26;18.33;;;5.70;;
74867;SDS011;63419;42.262;12.210;2023-04-24T03:17:53;11.50;;;6.47;;
74867;SDS011;63419;42.262;12.210;2023-04-24T03:20:22;11.60;;;4.88;;
74867;SDS011;63419;42.262;12.210;2023-04-24T03:22:49;15.45;;;6.28;;
74867;SDS011;63419;42.262;12.210;2023-04-24T03:25:16;15.25;;;6.03;;
74867;SDS011;63419;42.262;12.210;2023-04-24T03:27:43;11.93;;;6.05;;
74867;SDS011;63419;42.262;12.210;2023-04-24T03:30:10;17.65;;;6.50;;
74867;SDS011;63419;42.262;12.210;2023-04-24T03:32:37;14.05;;;6.20;;
74867;SDS011;63419;42.262;12.210;2023-04-24T03:35:08;12.32;;;4.75;;
74867;SDS011;63419;42.262;12.210;2023-04-24T03:37:35;18.42;;;7.95;;
74867;SDS011;63419;42.262;12.210;2023-04-24T03:40:02;15.07;;;7.30;;
74867;SDS011;63419;42.262;12.210;2023-04-24T03:44:56;14.20;;;6.35;;
74867;SDS011;63419;42.262;12.210;2023-04-24T03:47:23;14.68;;;6.72;;
74867;SDS011;63419;42.262;12.210;2023-04-24T03:49:50;16.67;;;7.07;;
74867;SDS011;63419;42.262;12.210;2023-04-24T03:54:44;14.48;;;7.43;;
74867;SDS011;63419;42.262;12.210;2023-04-24T03:57:11;12.18;;;6.53;;
74867;SDS011;63419;42.262;12.210;2023-04-24T03:59:38;17.60;;;6.80;;
74867;SDS011;63419;42.262;12.210;2023-04-24T04:02:05;14.27;;;5.75;;
74867;SDS011;63419;42.262;12.210;2023-04-24T04:04:33;19.92;;;6.65;;
74867;SDS011;63419;42.262;12.210;2023-04-24T04:07:00;17.13;;;6.07;;
74867;SDS011;63419;42.262;12.210;2023-04-24T04:09:29;15.18;;;6.07;;
74867;SDS011;63419;42.262;12.210;2023-04-24T04:11:56;14.93;;;6.53;;
74867;SDS011;63419;42.262;12.210;2023-04-24T04:14:23;10.52;;;4.90;;
74867;SDS011;63419;42.262;12.210;2023-04-24T04:16:50;14.70;;;6.15;;
74867;SDS011;63419;42.262;12.210;2023-04-24T04:19:20;20.02;;;9.90;;
74867;SDS011;63419;42.262;12.210;2023-04-24T04:21:47;19.30;;;7.00;;
74867;SDS011;63419;42.262;12.210;2023-04-24T04:24:19;13.18;;;6.60;;
74867;SDS011;63419;42.262;12.210;2023-04-24T04:26:50;17.92;;;6.50;;
74867;SDS011;63419;42.262;12.210;2023-04-24T04:29:18;15.95;;;7.05;;
74867;SDS011;63419;42.262;12.210;2023-04-24T04:31:45;16.50;;;7.13;;
74867;SDS011;63419;42.262;12.210;2023-04-24T04:34:12;16.58;;;5.68;;
74867;SDS011;63419;42.262;12.210;2023-04-24T04:36:40;17.63;;;6.82;;
74867;SDS011;63419;42.262;12.210;2023-04-24T04:39:08;15.57;;;7.22;;
74867;SDS011;63419;42.262;12.210;2023-04-24T04:41:35;21.83;;;6.68;;
74867;SDS011;63419;42.262;12.210;2023-04-24T04:44:01;13.75;;;6.30;;
74867;SDS011;63419;42.262;12.210;2023-04-24T04:46:31;15.00;;;5.75;;
74867;SDS011;63419;42.262;12.210;2023-04-24T04:49:03;12.95;;;5.65;;
74867;SDS011;63419;42.262;12.210;2023-04-24T04:51:30;10.93;;;5.28;;
74867;SDS011;63419;42.262;12.210;2023-04-24T04:53:58;12.93;;;6.10;;
74867;SDS011;63419;42.262;12.210;2023-04-24T04:56:25;16.60;;;7.18;;
74867;SDS011;63419;42.262;12.210;2023-04-24T04:58:52;20.13;;;11.18;;
74867;SDS011;63419;42.262;12.210;2023-04-24T05:01:19;16.30;;;7.72;;
74867;SDS011;63419;42.262;12.210;2023-04-24T05:03:46;20.13;;;8.40;;
74867;SDS011;63419;42.262;12.210;2023-04-24T05:06:13;18.63;;;7.40;;
74867;SDS011;63419;42.262;12.210;2023-04-24T05:08:41;17.00;;;8.35;;
74867;SDS011;63419;42.262;12.210;2023-04-24T05:11:08;19.48;;;7.85;;
74867;SDS011;63419;42.262;12.210;2023-04-24T05:13:35;16.65;;;7.53;;
74867;SDS011;63419;42.262;12.210;2023-04-24T05:16:06;16.67;;;7.13;;
74867;SDS011;63419;42.262;12.210;2023-04-24T05:18:33;16.58;;;7.40;;
74867;SDS011;63419;42.262;12.210;2023-04-24T05:21:00;17.15;;;7.25;;
74867;SDS011;63419;42.262;12.210;2023-04-24T05:23:28;15.02;;;6.63;;
74867;SDS011;63419;42.262;12.210;2023-04-24T05:25:54;19.75;;;7.18;;
74867;SDS011;63419;42.262;12.210;2023-04-24T05:28:21;18.17;;;7.03;;
74867;SDS011;63419;42.262;12.210;2023-04-24T05:30:48;14.82;;;6.22;;
74867;SDS011;63419;42.262;12.210;2023-04-24T05:33:16;20.10;;;6.60;;
74867;SDS011;63419;42.262;12.210;2023-04-24T05:35:43;16.90;;;6.13;;
74867;SDS011;63419;42.262;12.210;2023-04-24T05:38:13;18.02;;;6.75;;
74867;SDS011;63419;42.262;12.210;2023-04-24T05:40:43;12.70;;;6.45;;
74867;SDS011;63419;42.262;12.210;2023-04-24T05:43:11;17.35;;;6.65;;
74867;SDS011;63419;42.262;12.210;2023-04-24T05:45:38;16.63;;;5.78;;
74867;SDS011;63419;42.262;12.210;2023-04-24T05:48:05;17.52;;;7.30;;
74867;SDS011;63419;42.262;12.210;2023-04-24T05:53:02;13.82;;;6.63;;
74867;SDS011;63419;42.262;12.210;2023-04-24T05:55:30;16.48;;;6.40;;
74867;SDS011;63419;42.262;12.210;2023-04-24T05:57:57;16.90;;;5.75;;
74867;SDS011;63419;42.262;12.210;2023-04-24T06:00:24;11.63;;;5.63;;
74867;SDS011;63419;42.262;12.210;2023-04-24T06:02:52;16.45;;;5.93;;
74867;SDS011;63419;42.262;12.210;2023-04-24T06:05:19;11.63;;;5.35;;
74867;SDS011;63419;42.262;12.210;2023-04-24T06:07:47;15.75;;;5.88;;
74867;SDS011;63419;42.262;12.210;2023-04-24T06:10:14;13.05;;;6.15;;
74867;SDS011;63419;42.262;12.210;2023-04-24T06:15:08;13.18;;;4.25;;
74867;SDS011;63419;42.262;12.210;2023-04-24T06:17:36;11.40;;;4.63;;
74867;SDS011;63419;42.262;12.210;2023-04-24T06:20:03;13.25;;;5.90;;
74867;SDS011;63419;42.262;12.210;2023-04-24T06:22:32;12.80;;;5.90;;
74867;SDS011;63419;42.262;12.210;2023-04-24T06:24:59;12.10;;;4.60;;
74867;SDS011;63419;42.262;12.210;2023-04-24T06:27:28;10.85;;;4.82;;
74867;SDS011;63419;42.262;12.210;2023-04-24T06:29:55;11.73;;;4.90;;
74867;SDS011;63419;42.262;12.210;2023-04-24T06:32:22;16.67;;;6.00;;
74867;SDS011;63419;42.262;12.210;2023-04-24T06:34:51;16.33;;;5.38;;
74867;SDS011;63419;42.262;12.210;2023-04-24T06:37:21;17.60;;;5.80;;
74867;SDS011;63419;42.262;12.210;2023-04-24T06:39:49;15.00;;;6.75;;
74867;SDS011;63419;42.262;12.210;2023-04-24T06:42:15;13.73;;;7.40;;
74867;SDS011;63419;42.262;12.210;2023-04-24T06:44:43;14.25;;;5.70;;
74867;SDS011;63419;42.262;12.210;2023-04-24T06:47:10;12.45;;;4.32;;
74867;SDS011;63419;42.262;12.210;2023-04-24T06:49:39;14.25;;;5.38;;
74867;SDS011;63419;42.262;12.210;2023-04-24T06:54:34;15.02;;;7.05;;
74867;SDS011;63419;42.262;12.210;2023-04-24T06:57:01;10.82;;;5.13;;
74867;SDS011;63419;42.262;12.210;2023-04-24T07:01:56;11.00;;;5.32;;
74867;SDS011;63419;42.262;12.210;2023-04-24T07:04:23;14.25;;;5.38;;
74867;SDS011;63419;42.262;12.210;2023-04-24T07:06:52;16.67;;;6.68;;
74867;SDS011;63419;42.262;12.210;2023-04-24T07:09:22;16.10;;;5.40;;
74867;SDS011;63419;42.262;12.210;2023-04-24T07:11:50;16.35;;;6.45;;
74867;SDS011;63419;42.262;12.210;2023-04-24T07:14:18;16.80;;;6.10;;
74867;SDS011;63419;42.262;12.210;2023-04-24T07:16:45;17.50;;;7.15;;
74867;SDS011;63419;42.262;12.210;2023-04-24T07:19:12;18.17;;;6.22;;
74867;SDS011;63419;42.262;12.210;2023-04-24T07:21:40;20.27;;;6.25;;
74867;SDS011;63419;42.262;12.210;2023-04-24T07:24:07;12.85;;;4.32;;
74867;SDS011;63419;42.262;12.210;2023-04-24T07:26:56;18.10;;;5.82;;
74867;SDS011;63419;42.262;12.210;2023-04-24T07:29:23;17.50;;;5.53;;
74867;SDS011;63419;42.262;12.210;2023-04-24T07:31:50;15.90;;;6.00;;
74867;SDS011;63419;42.262;12.210;2023-04-24T07:34:17;16.38;;;5.38;;
74867;SDS011;63419;42.262;12.210;2023-04-24T07:36:44;25.75;;;6.80;;
74867;SDS011;63419;42.262;12.210;2023-04-24T07:39:12;17.05;;;5.40;;
74867;SDS011;63419;42.262;12.210;2023-04-24T07:41:39;19.38;;;6.07;;
74867;SDS011;63419;42.262;12.210;2023-04-24T07:44:06;21.70;;;6.57;;
74867;SDS011;63419;42.262;12.210;2023-04-24T07:46:33;20.52;;;6.05;;
74867;SDS011;63419;42.262;12.210;2023-04-24T07:49:00;15.32;;;5.15;;
74867;SDS011;63419;42.262;12.210;2023-04-24T07:51:39;20.35;;;5.47;;
74867;SDS011;63419;42.262;12.210;2023-04-24T07:54:08;19.33;;;5.75;;
74867;SDS011;63419;42.262;12.210;2023-04-24T07:56:35;12.15;;;4.30;;
74867;SDS011;63419;42.262;12.210;2023-04-24T07:59:05;13.05;;;4.35;;
74867;SDS011;63419;42.262;12.210;2023-04-24T08:01:32;10.20;;;3.17;;
74867;SDS011;63419;42.262;12.210;2023-04-24T08:03:59;12.38;;;4.25;;
74867;SDS011;63419;42.262;12.210;2023-04-24T08:06:27;14.98;;;3.83;;
74867;SDS011;63419;42.262;12.210;2023-04-24T08:08:57;14.55;;;4.38;;
74867;SDS011;63419;42.262;12.210;2023-04-24T08:11:25;14.70;;;3.42;;
74867;SDS011;63419;42.262;12.210;2023-04-24T08:13:52;12.35;;;2.63;;
74867;SDS011;63419;42.262;12.210;2023-04-24T08:16:21;10.45;;;3.33;;
74867;SDS011;63419;42.262;12.210;2023-04-24T08:18:50;11.65;;;3.10;;
74867;SDS011;63419;42.262;12.210;2023-04-24T08:21:17;20.38;;;4.57;;
74867;SDS011;63419;42.262;12.210;2023-04-24T08:23:45;9.93;;;2.88;;
74867;SDS011;63419;42.262;12.210;2023-04-24T08:26:12;12.05;;;2.47;;
74867;SDS011;63419;42.262;12.210;2023-04-24T08:28:39;14.10;;;3.83;;
74867;SDS011;63419;42.262;12.210;2023-04-24T08:31:06;9.65;;;2.97;;
74867;SDS011;63419;42.262;12.210;2023-04-24T08:33:34;12.48;;;2.08;;
74867;SDS011;63419;42.262;12.210;2023-04-24T08:38:28;10.15;;;2.60;;
74867;SDS011;63419;42.262;12.210;2023-04-24T08:40:59;12.52;;;3.13;;
74867;SDS011;63419;42.262;12.210;2023-04-24T08:43:27;5.85;;;2.05;;
74867;SDS011;63419;42.262;12.210;2023-04-24T08:48:23;8.48;;;2.13;;
74867;SDS011;63419;42.262;12.210;2023-04-24T08:50:57;11.60;;;2.60;;
74867;SDS011;63419;42.262;12.210;2023-04-24T08:53:25;13.27;;;2.67;;
74867;SDS011;63419;42.262;12.210;2023-04-24T08:55:54;9.25;;;2.15;;
74867;SDS011;63419;42.262;12.210;2023-04-24T08:58:22;12.40;;;2.80;;
74867;SDS011;63419;42.262;12.210;2023-04-24T09:00:55;10.52;;;2.45;;
74867;SDS011;63419;42.262;12.210;2023-04-24T09:03:24;9.85;;;2.65;;
74867;SDS011;63419;42.262;12.210;2023-04-24T09:05:53;9.07;;;2.78;;
74867;SDS011;63419;42.262;12.210;2023-04-24T09:08:22;12.50;;;3.00;;
74867;SDS011;63419;42.262;12.210;2023-04-24T09:10:51;13.30;;;3.35;;
74867;SDS011;63419;42.262;12.210;2023-04-24T09:15:46;11.88;;;2.53;;
74867;SDS011;63419;42.262;12.210;2023-04-24T09:23:30;12.30;;;2.50;;
74867;SDS011;63419;42.262;12.210;2023-04-24T09:25:58;14.05;;;2.42;;
74867;SDS011;63419;42.262;12.210;2023-04-24T09:33:57;16.33;;;3.40;;
74867;SDS011;63419;42.262;12.210;2023-04-24T09:36:37;10.38;;;3.05;;
74867;SDS011;63419;42.262;12.210;2023-04-24T09:39:13;16.05;;;3.50;;
74867;SDS011;63419;42.262;12.210;2023-04-24T09:44:15;10.35;;;2.78;;
74867;SDS011;63419;42.262;12.210;2023-04-24T09:46:50;13.30;;;3.13;;
74867;SDS011;63419;42.262;12.210;2023-04-24T09:51:53;12.25;;;3.00;;
74867;SDS011;63419;42.262;12.210;2023-04-24T09:54:32;12.75;;;3.17;;
74867;SDS011;63419;42.262;12.210;2023-04-24T09:57:00;13.75;;;2.85;;
74867;SDS011;63419;42.262;12.210;2023-04-24T09:59:28;7.95;;;2.35;;
74867;SDS011;63419;42.262;12.210;2023-04-24T10:01:56;7.90;;;2.47;;
74867;SDS011;63419;42.262;12.210;2023-04-24T10:04:26;12.55;;;2.63;;
74867;SDS011;63419;42.262;12.210;2023-04-24T10:06:55;12.63;;;2.72;;
74867;SDS011;63419;42.262;12.210;2023-04-24T10:09:24;10.00;;;2.42;;
74867;SDS011;63419;42.262;12.210;2023-04-24T10:11:53;11.40;;;2.67;;
74867;SDS011;63419;42.262;12.210;2023-04-24T10:14:22;6.60;;;1.60;;
74867;SDS011;63419;42.262;12.210;2023-04-24T10:16:52;12.73;;;2.85;;
74867;SDS011;63419;42.262;12.210;2023-04-24T10:19:20;14.68;;;3.22;;
74867;SDS011;63419;42.262;12.210;2023-04-24T10:21:47;9.98;;;2.47;;
74867;SDS011;63419;42.262;12.210;2023-04-24T10:24:15;11.27;;;2.75;;
74867;SDS011;63419;42.262;12.210;2023-04-24T10:26:44;11.20;;;3.05;;
74867;SDS011;63419;42.262;12.210;2023-04-24T10:29:13;9.40;;;2.30;;
74867;SDS011;63419;42.262;12.210;2023-04-24T10:31:41;14.52;;;2.55;;
74867;SDS011;63419;42.262;12.210;2023-04-24T10:34:12;9.82;;;2.10;;
74867;SDS011;63419;42.262;12.210;2023-04-24T10:36:46;8.75;;;2.38;;
74867;SDS011;63419;42.262;12.210;2023-04-24T10:39:17;8.02;;;1.85;;
74867;SDS011;63419;42.262;12.210;2023-04-24T10:41:53;9.02;;;2.10;;
74867;SDS011;63419;42.262;12.210;2023-04-24T10:44:23;12.60;;;3.08;;
74867;SDS011;63419;42.262;12.210;2023-04-24T10:46:54;11.70;;;2.40;;
74867;SDS011;63419;42.262;12.210;2023-04-24T10:49:29;13.27;;;2.47;;
74867;SDS011;63419;42.262;12.210;2023-04-24T10:52:01;14.48;;;3.28;;
74867;SDS011;63419;42.262;12.210;2023-04-24T10:54:33;7.88;;;1.98;;
74867;SDS011;63419;42.262;12.210;2023-04-24T10:59:47;10.82;;;2.20;;
74867;SDS011;63419;42.262;12.210;2023-04-24T11:02:16;7.43;;;1.90;;
74867;SDS011;63419;42.262;12.210;2023-04-24T11:04:44;10.98;;;2.17;;
74867;SDS011;63419;42.262;12.210;2023-04-24T11:07:12;8.35;;;1.48;;
74867;SDS011;63419;42.262;12.210;2023-04-24T11:12:10;10.15;;;2.13;;
74867;SDS011;63419;42.262;12.210;2023-04-24T11:17:33;11.23;;;1.90;;
74867;SDS011;63419;42.262;12.210;2023-04-24T11:20:01;10.80;;;2.08;;
74867;SDS011;63419;42.262;12.210;2023-04-24T11:22:52;8.10;;;1.88;;
74867;SDS011;63419;42.262;12.210;2023-04-24T11:25:24;11.40;;;2.05;;
74867;SDS011;63419;42.262;12.210;2023-04-24T11:27:52;8.77;;;1.90;;
74867;SDS011;63419;42.262;12.210;2023-04-24T11:30:31;6.65;;;1.35;;
74867;SDS011;63419;42.262;12.210;2023-04-24T11:33:03;10.48;;;2.58;;
74867;SDS011;63419;42.262;12.210;2023-04-24T11:35:34;8.35;;;1.92;;
74867;SDS011;63419;42.262;12.210;2023-04-24T11:38:05;10.57;;;2.20;;
74867;SDS011;63419;42.262;12.210;2023-04-24T11:40:50;8.70;;;2.08;;
74867;SDS011;63419;42.262;12.210;2023-04-24T11:43:18;9.75;;;1.92;;
74867;SDS011;63419;42.262;12.210;2023-04-24T11:45:49;8.65;;;1.92;;
74867;SDS011;63419;42.262;12.210;2023-04-24T11:48:19;9.00;;;1.92;;
74867;SDS011;63419;42.262;12.210;2023-04-24T11:50:50;6.90;;;1.05;;
74867;SDS011;63419;42.262;12.210;2023-04-24T11:53:18;5.82;;;0.90;;
74867;SDS011;63419;42.262;12.210;2023-04-24T11:55:47;5.53;;;0.93;;
74867;SDS011;63419;42.262;12.210;2023-04-24T11:58:14;4.05;;;0.73;;
74867;SDS011;63419;42.262;12.210;2023-04-24T12:00:54;5.65;;;1.15;;
74867;SDS011;63419;42.262;12.210;2023-04-24T12:03:23;4.95;;;1.00;;
74867;SDS011;63419;42.262;12.210;2023-04-24T12:05:51;3.80;;;0.80;;
74867;SDS011;63419;42.262;12.210;2023-04-24T12:10:54;4.53;;;0.73;;
74867;SDS011;63419;42.262;12.210;2023-04-24T12:13:21;4.32;;;0.90;;
74867;SDS011;63419;42.262;12.210;2023-04-24T12:15:49;5.55;;;0.82;;
74867;SDS011;63419;42.262;12.210;2023-04-24T12:18:17;5.47;;;0.93;;
74867;SDS011;63419;42.262;12.210;2023-04-24T12:20:44;5.75;;;1.00;;
74867;SDS011;63419;42.262;12.210;2023-04-24T12:23:11;4.50;;;0.65;;
74867;SDS011;63419;42.262;12.210;2023-04-24T12:25:38;4.40;;;0.82;;
74867;SDS011;63419;42.262;12.210;2023-04-24T12:30:34;5.55;;;0.90;;
74867;SDS011;63419;42.262;12.210;2023-04-24T12:33:05;5.88;;;1.02;;
74867;SDS011;63419;42.262;12.210;2023-04-24T12:38:10;5.65;;;1.10;;
74867;SDS011;63419;42.262;12.210;2023-04-24T12:40:40;3.80;;;0.75;;
74867;SDS011;63419;42.262;12.210;2023-04-24T12:43:14;5.57;;;1.02;;
74867;SDS011;63419;42.262;12.210;2023-04-24T12:45:45;8.77;;;1.20;;
74867;SDS011;63419;42.262;12.210;2023-04-24T12:48:15;5.75;;;0.88;;
74867;SDS011;63419;42.262;12.210;2023-04-24T12:50:43;8.60;;;1.10;;
74867;SDS011;63419;42.262;12.210;2023-04-24T12:53:12;3.92;;;0.98;;
74867;SDS011;63419;42.262;12.210;2023-04-24T12:55:40;3.53;;;0.63;;
74867;SDS011;63419;42.262;12.210;2023-04-24T13:00:34;5.22;;;0.68;;
74867;SDS011;63419;42.262;12.210;2023-04-24T13:03:01;4.70;;;0.65;;
74867;SDS011;63419;42.262;12.210;2023-04-24T13:05:29;4.65;;;0.60;;
74867;SDS011;63419;42.262;12.210;2023-04-24T13:07:57;5.70;;;0.80;;
74867;SDS011;63419;42.262;12.210;2023-04-24T13:10:24;5.75;;;1.10;;
74867;SDS011;63419;42.262;12.210;2023-04-24T13:12:51;5.57;;;0.85;;
74867;SDS011;63419;42.262;12.210;2023-04-24T13:15:18;6.13;;;1.17;;
74867;SDS011;63419;42.262;12.210;2023-04-24T13:17:46;7.85;;;1.17;;
74867;SDS011;63419;42.262;12.210;2023-04-24T13:20:13;6.05;;;1.08;;
74867;SDS011;63419;42.262;12.210;2023-04-24T13:25:07;5.80;;;0.65;;
74867;SDS011;63419;42.262;12.210;2023-04-24T13:27:35;5.35;;;0.90;;
74867;SDS011;63419;42.262;12.210;2023-04-24T13:30:04;4.05;;;0.68;;
74867;SDS011;63419;42.262;12.210;2023-04-24T13:32:32;3.80;;;0.60;;
74867;SDS011;63419;42.262;12.210;2023-04-24T13:34:59;5.22;;;0.90;;
74867;SDS011;63419;42.262;12.210;2023-04-24T13:39:53;6.53;;;0.50;;
74867;SDS011;63419;42.262;12.210;2023-04-24T13:44:47;5.22;;;0.85;;
74867;SDS011;63419;42.262;12.210;2023-04-24T13:47:14;6.50;;;0.73;;
74867;SDS011;63419;42.262;12.210;2023-04-24T13:49:41;4.20;;;0.80;;
74867;SDS011;63419;42.262;12.210;2023-04-24T13:52:08;5.75;;;1.00;;
74867;SDS011;63419;42.262;12.210;2023-04-24T13:54:36;6.68;;;1.20;;
74867;SDS011;63419;42.262;12.210;2023-04-24T13:57:03;6.50;;;1.23;;
74867;SDS011;63419;42.262;12.210;2023-04-24T14:01:57;4.97;;;0.60;;
74867;SDS011;63419;42.262;12.210;2023-04-24T14:06:52;5.65;;;0.80;;
74867;SDS011;63419;42.262;12.210;2023-04-24T14:09:19;3.17;;;0.68;;
74867;SDS011;63419;42.262;12.210;2023-04-24T14:14:12;5.63;;;1.10;;
74867;SDS011;63419;42.262;12.210;2023-04-24T14:16:39;7.45;;;1.10;;
74867;SDS011;63419;42.262;12.210;2023-04-24T14:21:33;5.25;;;0.70;;
74867;SDS011;63419;42.262;12.210;2023-04-24T14:26:27;5.47;;;1.02;;
74867;SDS011;63419;42.262;12.210;2023-04-24T14:31:32;5.03;;;0.63;;
74867;SDS011;63419;42.262;12.210;2023-04-24T14:34:00;6.75;;;1.00;;
74867;SDS011;63419;42.262;12.210;2023-04-24T14:38:53;2.42;;;0.52;;
74867;SDS011;63419;42.262;12.210;2023-04-24T14:43:47;6.28;;;0.95;;
74867;SDS011;63419;42.262;12.210;2023-04-24T14:46:14;3.45;;;0.43;;
74867;SDS011;63419;42.262;12.210;2023-04-24T14:48:42;4.28;;;0.68;;
74867;SDS011;63419;42.262;12.210;2023-04-24T14:51:09;5.57;;;0.90;;
74867;SDS011;63419;42.262;12.210;2023-04-24T14:56:03;6.10;;;1.00;;
74867;SDS011;63419;42.262;12.210;2023-04-24T14:58:30;6.03;;;0.85;;
74867;SDS011;63419;42.262;12.210;2023-04-24T15:00:57;5.60;;;0.95;;
74867;SDS011;63419;42.262;12.210;2023-04-24T15:03:23;7.53;;;1.20;;
74867;SDS011;63419;42.262;12.210;2023-04-24T15:05:53;9.32;;;0.80;;
74867;SDS011;63419;42.262;12.210;2023-04-24T15:10:47;5.00;;;0.70;;
74867;SDS011;63419;42.262;12.210;2023-04-24T15:13:14;7.43;;;1.10;;
74867;SDS011;63419;42.262;12.210;2023-04-24T15:18:08;4.63;;;0.70;;
74867;SDS011;63419;42.262;12.210;2023-04-24T15:20:38;4.82;;;1.02;;
74867;SDS011;63419;42.262;12.210;2023-04-24T15:23:05;4.68;;;0.77;;
74867;SDS011;63419;42.262;12.210;2023-04-24T15:25:33;5.45;;;1.10;;
74867;SDS011;63419;42.262;12.210;2023-04-24T15:28:01;8.10;;;0.88;;
74867;SDS011;63419;42.262;12.210;2023-04-24T15:30:28;6.10;;;1.35;;
74867;SDS011;63419;42.262;12.210;2023-04-24T15:32:56;4.78;;;0.52;;
74867;SDS011;63419;42.262;12.210;2023-04-24T15:35:23;6.47;;;0.80;;
74867;SDS011;63419;42.262;12.210;2023-04-24T15:37:50;4.72;;;0.55;;
74867;SDS011;63419;42.262;12.210;2023-04-24T15:40:17;7.18;;;0.80;;
74867;SDS011;63419;42.262;12.210;2023-04-24T15:42:44;4.05;;;0.63;;
74867;SDS011;63419;42.262;12.210;2023-04-24T15:45:11;4.10;;;0.75;;
74867;SDS011;63419;42.262;12.210;2023-04-24T15:47:38;5.07;;;0.70;;
74867;SDS011;63419;42.262;12.210;2023-04-24T15:50:06;8.07;;;1.30;;
74867;SDS011;63419;42.262;12.210;2023-04-24T15:52:39;7.25;;;0.90;;
74867;SDS011;63419;42.262;12.210;2023-04-24T15:57:33;6.55;;;1.10;;
74867;SDS011;63419;42.262;12.210;2023-04-24T16:00:01;9.60;;;0.73;;
74867;SDS011;63419;42.262;12.210;2023-04-24T16:02:32;4.07;;;0.55;;
74867;SDS011;63419;42.262;12.210;2023-04-24T16:04:59;3.95;;;0.80;;
74867;SDS011;63419;42.262;12.210;2023-04-24T16:07:27;7.38;;;0.90;;
74867;SDS011;63419;42.262;12.210;2023-04-24T16:09:54;5.07;;;0.88;;
74867;SDS011;63419;42.262;12.210;2023-04-24T16:14:47;4.32;;;0.60;;